Time;durP1;ratioP1;P1;durP2;ratioP2;P2;SDS_P1;SDS_P2;PMS_P1;PMS_P2;Temp;Humidity;BMP_temperature;BMP_pressure;BME280_temperature;BME280_humidity;BME280_pressure;Samples;Min_cycle;Max_cycle;Signal;HPM_P1;HPM_P2
2022/10/02 00:04:42;;;;;;;;;;;;;;;;;;10503744;28;19928;-58
2022/10/02 00:09:44;;;;;;;;;;;;;;;;;;10502771;28;19924;-59
2022/10/02 00:14:46;;;;;;;;;;;;;;;;;;10503382;28;19924;-59
2022/10/02 00:19:48;;;;;;;;;;;;;;;;;;10501545;28;19928;-58
2022/10/02 00:24:50;;;;;;;;;;;;;;;;;;10503058;28;19933;-58
2022/10/02 00:29:52;;;;;;;;;;;;;;;;;;10500351;28;19989;-59
2022/10/02 00:34:54;;;;;;;;;;;;;;;;;;10502327;28;19970;-58
2022/10/02 00:39:56;;;;;;;;;;;;;;;;;;10500995;28;20359;-58
2022/10/02 00:44:58;;;;;;;;;;;;;;;;;;10502237;28;19970;-59
2022/10/02 00:50:01;;;;;;;;;;;;;;;;;;10500200;28;19977;-58
2022/10/02 00:55:03;;;;;;;;;;;;;;;;;;10501709;28;19928;-58
2022/10/02 01:00:05;;;;;;;;;;;;;;;;;;10499974;28;20330;-58
2022/10/02 01:05:08;;;;;;;;;;;;;;;;;;10501021;28;19924;-58
2022/10/02 01:10:10;;;;;;;;;;;;;;;;;;10499253;28;19929;-58
2022/10/02 01:15:12;;;;;;;;;;;;;;;;;;10500654;28;19932;-59
2022/10/02 01:20:18;;;;;;;;;;;;;;;;;;10499085;28;20054;-59
2022/10/02 01:25:20;;;;;;;;;;;;;;;;;;10500622;28;19924;-58
2022/10/02 01:30:22;;;;;;;;;;;;;;;;;;10499383;28;19978;-58
2022/10/02 01:35:24;;;;;;;;;;;;;;;;;;10499318;28;19925;-58
2022/10/02 01:40:26;;;;;;;;;;;;;;;;;;10496263;28;19924;-58
2022/10/02 01:45:28;;;;;;;;;;;;;;;;;;10499838;28;19978;-58
2022/10/02 01:50:30;;;;;;;;;;;;;;;;;;10499733;28;20015;-58
2022/10/02 01:55:32;;;;;;;;;;;;;;;;;;10498607;28;19954;-58
2022/10/02 02:00:34;;;;;;;;;;;;;;;;;;10496856;28;19985;-58
2022/10/02 02:05:36;;;;;;;;;;;;;;;;;;10499305;28;19977;-58
2022/10/02 02:10:38;;;;;;;;;;;;;;;;;;10498544;28;20264;-58
2022/10/02 02:15:40;;;;;;;;;;;;;;;;;;10497225;28;19928;-58
2022/10/02 02:20:42;;;;;;;;;;;;;;;;;;10496768;28;20299;-59
2022/10/02 02:25:44;;;;;;;;;;;;;;;;;;10497932;28;19970;-58
2022/10/02 02:30:46;;;;;;;;;;;;;;;;;;10498145;28;19974;-58
2022/10/02 02:35:49;;;;;;;;;;;;;;;;;;10497970;28;20337;-58
2022/10/02 02:40:51;;;;;;;;;;;;;;;;;;10495904;28;19986;-58
2022/10/02 02:45:53;;;;;;;;;;;;;;;;;;10498481;28;19932;-58
2022/10/02 02:50:55;;;;;;;;;;;;;;;;;;10498317;28;20019;-57
2022/10/02 02:55:57;;;;;;;;;;;;;;;;;;10496121;28;19978;-58
2022/10/02 03:00:59;;;;;;;;;;;;;;;;;;10497155;28;19925;-58
2022/10/02 03:06:02;;;;;;;;;;;;;;;;;;10498044;28;19931;-58
2022/10/02 03:11:07;;;;;;;;;;;;;;;;;;10497926;28;19951;-57
2022/10/02 03:16:10;;;;;;;;;;;;;;;;;;10503258;28;20360;-58
2022/10/02 03:21:12;;;;;;;;;;;;;;;;;;10503112;28;20358;-58
2022/10/02 03:26:14;;;;;;;;;;;;;;;;;;10505038;28;19986;-58
2022/10/02 03:31:16;;;;;;;;;;;;;;;;;;10505125;28;19974;-58
2022/10/02 03:36:20;;;;;;;;;;;;;;;;;;10503253;28;20271;-58
2022/10/02 03:41:22;;;;;;;;;;;;;;;;;;10503150;28;20440;-58
2022/10/02 03:46:24;;;;;;;;;;;;;;;;;;10503958;28;20280;-58
2022/10/02 03:51:26;;;;;;;;;;;;;;;;;;10502823;28;19924;-58
2022/10/02 03:56:28;;;;;;;;;;;;;;;;;;10504044;28;19974;-58
2022/10/02 04:01:30;;;;;;;;;;;;;;;;;;10502294;28;20391;-59
2022/10/02 04:06:32;;;;;;;;;;;;;;;;;;10503869;28;19955;-59
2022/10/02 04:11:34;;;;;;;;;;;;;;;;;;10503642;28;20011;-58
2022/10/02 04:16:36;;;;;;;;;;;;;;;;;;10503391;28;20288;-58
2022/10/02 04:21:39;;;;;;;;;;;;;;;;;;10502232;28;19925;-58
2022/10/02 04:26:41;;;;;;;;;;;;;;;;;;10501250;28;20326;-58
2022/10/02 04:31:45;;;;;;;;;;;;;;;;;;10501206;28;20154;-59
2022/10/02 04:36:47;;;;;;;;;;;;;;;;;;10501944;28;20272;-58
2022/10/02 04:41:49;;;;;;;;;;;;;;;;;;10501311;28;19924;-59
2022/10/02 04:46:51;;;;;;;;;;;;;;;;;;10501251;28;19924;-58
2022/10/02 04:51:53;;;;;;;;;;;;;;;;;;10501299;28;20386;-58
2022/10/02 04:56:55;;;;;;;;;;;;;;;;;;10501911;28;19929;-58
2022/10/02 05:01:57;;;;;;;;;;;;;;;;;;10498954;28;20425;-58
2022/10/02 05:06:59;;;;;;;;;;;;;;;;;;10499759;28;20387;-58
2022/10/02 05:12:01;;;;;;;;;;;;;;;;;;10499160;28;19970;-58
2022/10/02 05:17:03;;;;;;;;;;;;;;;;;;10523855;28;19928;-58
2022/10/02 05:22:07;;;;;;;;;;;;;;;;;;10501134;28;19924;-59
2022/10/02 05:27:09;;;;;;;;;;;;;;;;;;10500097;28;20295;-58
2022/10/02 05:32:13;;;;;;;;;;;;;;;;;;10499577;28;19928;-58
2022/10/02 05:37:15;;;;;;;;;;;;;;;;;;10499453;28;19924;-59
2022/10/02 05:42:17;;;;;;;;;;;;;;;;;;10497561;28;20376;-58
2022/10/02 05:47:19;;;;;;;;;;;;;;;;;;10499244;28;19924;-58
2022/10/02 05:52:21;;;;;;;;;;;;;;;;;;10499681;28;19924;-58
2022/10/02 05:57:25;;;;;;;;;;;;;;;;;;10498094;28;19982;-58
2022/10/02 06:02:28;;;;;;;;;;;;;;;;;;10497289;28;20296;-58
2022/10/02 06:07:30;;;;;;;;;;;;;;;;;;10497709;28;20398;-59
2022/10/02 06:12:32;;;;;;;;;;;;;;;;;;10497297;28;19986;-58
2022/10/02 06:17:34;;;;;;;;;;;;;;;;;;10496619;28;20272;-58
2022/10/02 06:22:36;;;;;;;;;;;;;;;;;;10498188;28;19924;-58
2022/10/02 06:27:38;;;;;;;;;;;;;;;;;;10498182;28;20318;-58
2022/10/02 06:32:40;;;;;;;;;;;;;;;;;;10482625;22;19974;-60
2022/10/02 06:37:43;;;;;;;;;;;;;;;;;;10416097;28;19926;-60
2022/10/02 06:42:46;;;;;;;;;;;;;;;;;;10454208;28;19932;-60
2022/10/02 06:47:48;;;;;;;;;;;;;;;;;;10459196;28;19925;-60
2022/10/02 06:52:50;;;;;;;;;;;;;;;;;;10463650;28;20345;-60
2022/10/02 06:57:52;;;;;;;;;;;;;;;;;;10463594;28;19972;-59
2022/10/02 07:02:54;;;;;;;;;;;;;;;;;;10463885;28;19951;-60
2022/10/02 07:07:56;;;;;;;;;;;;;;;;;;10472256;28;19929;-60
2022/10/02 07:12:59;;;;;;;;;;;;;;;;;;10460715;28;19929;-60
2022/10/02 07:18:01;;;;;;;;;;;;;;;;;;10459153;28;20452;-59
2022/10/02 07:23:05;;;;;;;;;;;;;;;;;;10461540;28;19970;-60
2022/10/02 07:28:09;;;;;;;;;;;;;;;;;;10461208;28;20011;-60
2022/10/02 07:33:11;;;;;;;;;;;;;;;;;;10459640;28;20281;-60
2022/10/02 07:38:13;;;;;;;;;;;;;;;;;;10455376;28;19979;-60
2022/10/02 07:43:15;;;;;;;;;;;;;;;;;;10456892;28;19986;-60
2022/10/02 07:48:18;;;;;;;;;;;;;;;;;;10459949;28;20445;-60
2022/10/02 07:53:20;;;;;;;;;;;;;;;;;;10462347;28;19929;-60
2022/10/02 07:58:22;;;;;;;;;;;;;;;;;;10462310;28;19951;-60
2022/10/02 08:03:24;;;;;;;;;;;;;;;;;;10462450;28;19925;-60
2022/10/02 08:08:26;;;;;;;;;;;;;;;;;;10462438;28;19931;-59
2022/10/02 08:13:28;;;;;;;;;;;;;;;;;;10461554;28;20322;-60
2022/10/02 08:18:31;;;;;;;;;;;;;;;;;;10461960;28;19929;-59
2022/10/02 08:23:36;;;;;;;;;;;;;;;;;;10461890;28;19924;-60
2022/10/02 08:28:38;;;;;;;;;;;;;;;;;;10461033;28;20287;-60
2022/10/02 08:33:40;;;;;;;;;;;;;;;;;;10460846;28;19929;-60
2022/10/02 08:38:42;;;;;;;;;;;;;;;;;;10461150;28;19939;-60
2022/10/02 08:43:44;;;;;;;;;;;;;;;;;;10461002;28;19929;-59
2022/10/02 08:48:50;;;;;;;;;;;;;;;;;;10460803;28;19929;-60
2022/10/02 08:53:52;;;;;;;;;;;;;;;;;;10460832;28;20319;-60
2022/10/02 08:58:54;;;;;;;;;;;;;;;;;;10459742;28;20326;-60
2022/10/02 09:03:56;;;;;;;;;;;;;;;;;;10460217;28;19932;-60
2022/10/02 09:08:58;;;;;;;;;;;;;;;;;;10459902;28;19971;-60
2022/10/02 09:14:05;;;;;;;;;;;;;;;;;;10458553;28;19925;-60
2022/10/02 09:19:08;;;;;;;;;;;;;;;;;;10459077;28;19924;-60
2022/10/02 09:24:10;;;;;;;;;;;;;;;;;;10458760;28;20314;-60
2022/10/02 09:29:12;;;;;;;;;;;;;;;;;;10458712;28;19924;-60
2022/10/02 09:34:14;;;;;;;;;;;;;;;;;;10455277;28;19951;-60
2022/10/02 09:39:16;;;;;;;;;;;;;;;;;;10459144;28;19928;-60
2022/10/02 09:44:18;;;;;;;;;;;;;;;;;;10457638;28;19925;-60
2022/10/02 09:49:20;;;;;;;;;;;;;;;;;;10427894;28;19951;-60
2022/10/02 09:54:22;;;;;;;;;;;;;;;;;;10457569;28;19925;-60
2022/10/02 09:59:24;;;;;;;;;;;;;;;;;;10458078;28;19928;-60
2022/10/02 10:04:26;;;;;;;;;;;;;;;;;;10456855;28;20384;-61
2022/10/02 10:09:43;;;;;;;;;;;;;;;;;;10422237;28;19931;-61
2022/10/02 10:14:46;;;;;;;;;;;;;;;;;;10453881;28;20299;-61
2022/10/02 10:19:49;;;;;;;;;;;;;;;;;;10457522;28;19925;-61
2022/10/02 10:24:51;;;;;;;;;;;;;;;;;;10457442;28;19971;-61
2022/10/02 10:29:53;;;;;;;;;;;;;;;;;;10456385;28;19924;-61
2022/10/02 10:34:55;;;;;;;;;;;;;;;;;;10456963;28;19932;-61
2022/10/02 10:39:57;;;;;;;;;;;;;;;;;;10456050;28;19971;-61
2022/10/02 10:44:59;;;;;;;;;;;;;;;;;;10455369;28;20326;-61
2022/10/02 10:50:02;;;;;;;;;;;;;;;;;;10468587;28;19932;-61
2022/10/02 10:55:04;;;;;;;;;;;;;;;;;;10456881;28;19929;-61
2022/10/02 11:00:06;;;;;;;;;;;;;;;;;;10456224;28;19924;-61
2022/10/02 11:05:08;;;;;;;;;;;;;;;;;;10455963;28;19924;-61
2022/10/02 11:10:10;;;;;;;;;;;;;;;;;;10455606;28;19925;-61
2022/10/02 11:15:12;;;;;;;;;;;;;;;;;;10455830;28;19981;-61
2022/10/02 11:20:14;;;;;;;;;;;;;;;;;;10456258;28;19928;-61
2022/10/02 11:25:17;;;;;;;;;;;;;;;;;;10454093;28;19986;-61
2022/10/02 11:30:19;;;;;;;;;;;;;;;;;;10453586;28;19925;-66
2022/10/02 11:35:23;;;;;;;;;;;;;;;;;;10459841;28;19951;-66
2022/10/02 11:40:25;;;;;;;;;;;;;;;;;;10462733;28;20380;-61
2022/10/02 11:45:28;;;;;;;;;;;;;;;;;;10462240;28;19925;-61
2022/10/02 11:50:30;;;;;;;;;;;;;;;;;;10461604;28;20364;-61
2022/10/02 11:55:32;;;;;;;;;;;;;;;;;;10456507;28;19979;-62
2022/10/02 12:00:34;;;;;;;;;;;;;;;;;;10460142;28;19924;-62
2022/10/02 12:05:36;;;;;;;;;;;;;;;;;;10462573;28;19925;-62
2022/10/02 12:10:40;;;;;;;;;;;;;;;;;;10462323;28;19929;-61
2022/10/02 12:15:42;;;;;;;;;;;;;;;;;;10462216;28;19925;-62
2022/10/02 12:31:25;;;;;;;;;;;;;;;;;;10461227;28;19928;-62
2022/10/02 12:36:32;;;;;;;;;;;;;;;;;;10461032;28;19947;-62
2022/10/02 12:41:34;;;;;;;;;;;;;;;;;;10461274;28;19925;-62
2022/10/02 12:46:36;;;;;;;;;;;;;;;;;;10459260;28;19947;-62
2022/10/02 12:51:39;;;;;;;;;;;;;;;;;;10460747;28;19932;-62
2022/10/02 12:56:41;;;;;;;;;;;;;;;;;;10460497;28;19951;-62
2022/10/02 13:01:43;;;;;;;;;;;;;;;;;;10459860;28;19928;-62
2022/10/02 13:06:46;;;;;;;;;;;;;;;;;;10459673;28;19929;-62
2022/10/02 13:11:48;;;;;;;;;;;;;;;;;;10459359;28;20330;-62
2022/10/02 13:16:55;;;;;;;;;;;;;;;;;;10459771;28;20031;-62
2022/10/02 13:21:57;;;;;;;;;;;;;;;;;;10458958;28;20394;-62
2022/10/02 13:27:01;;;;;;;;;;;;;;;;;;10459352;28;19925;-62
2022/10/02 13:32:03;;;;;;;;;;;;;;;;;;10458286;28;20335;-62
2022/10/02 13:37:05;;;;;;;;;;;;;;;;;;10458233;28;20360;-62
2022/10/02 13:42:07;;;;;;;;;;;;;;;;;;10458118;28;19924;-62
2022/10/02 13:47:10;;;;;;;;;;;;;;;;;;10457975;28;19925;-62
2022/10/02 13:52:12;;;;;;;;;;;;;;;;;;10457809;28;20319;-62
2022/10/02 13:57:14;;;;;;;;;;;;;;;;;;10457882;28;19971;-62
2022/10/02 14:02:16;;;;;;;;;;;;;;;;;;10457489;28;19928;-62
2022/10/02 14:07:18;;;;;;;;;;;;;;;;;;10457974;28;19925;-63
2022/10/02 14:12:20;;;;;;;;;;;;;;;;;;10457798;28;19950;-62
2022/10/02 14:17:22;;;;;;;;;;;;;;;;;;10456998;28;19951;-62
2022/10/02 14:22:24;;;;;;;;;;;;;;;;;;10456821;28;19925;-62
2022/10/02 14:27:26;;;;;;;;;;;;;;;;;;10457340;28;19929;-62
2022/10/02 14:32:28;;;;;;;;;;;;;;;;;;10456522;28;20413;-62
2022/10/02 14:37:30;;;;;;;;;;;;;;;;;;10457108;28;19925;-62
2022/10/02 14:42:34;;;;;;;;;;;;;;;;;;10453787;28;19929;-62
2022/10/02 14:47:37;;;;;;;;;;;;;;;;;;10456943;28;19929;-62
2022/10/02 14:52:39;;;;;;;;;;;;;;;;;;10463798;28;19925;-62
2022/10/02 14:57:42;;;;;;;;;;;;;;;;;;10455662;28;19925;-62
2022/10/02 15:02:47;;;;;;;;;;;;;;;;;;10456709;28;19975;-62
2022/10/02 15:07:49;;;;;;;;;;;;;;;;;;10455826;28;20338;-62
2022/10/02 15:12:51;;;;;;;;;;;;;;;;;;10464455;28;19978;-62
2022/10/02 15:17:56;;;;;;;;;;;;;;;;;;10464260;28;19970;-62
2022/10/02 15:22:58;;;;;;;;;;;;;;;;;;10459369;28;20384;-62
2022/10/02 15:28:00;;;;;;;;;;;;;;;;;;10463328;28;20269;-62
2022/10/02 15:33:19;;;;;;;;;;;;;;;;;;10463317;28;19925;-62
2022/10/02 15:38:21;;;;;;;;;;;;;;;;;;10462902;28;19925;-63
2022/10/02 15:43:23;;;;;;;;;;;;;;;;;;10463362;28;19924;-62
2022/10/02 15:48:25;;;;;;;;;;;;;;;;;;10463006;28;20273;-62
2022/10/02 15:53:27;;;;;;;;;;;;;;;;;;10463127;28;19925;-62
2022/10/02 15:58:29;;;;;;;;;;;;;;;;;;10462794;28;19951;-62
2022/10/02 16:03:31;;;;;;;;;;;;;;;;;;10462041;28;19925;-62
2022/10/02 16:08:33;;;;;;;;;;;;;;;;;;10461876;28;20418;-62
2022/10/02 16:13:36;;;;;;;;;;;;;;;;;;10461675;28;20342;-62
2022/10/02 16:18:38;;;;;;;;;;;;;;;;;;10461832;28;19929;-62
2022/10/02 16:23:41;;;;;;;;;;;;;;;;;;10461905;28;19979;-62
2022/10/02 16:28:43;;;;;;;;;;;;;;;;;;10462149;28;19925;-62
2022/10/02 16:33:46;;;;;;;;;;;;;;;;;;10457786;28;19925;-62
2022/10/02 16:38:48;;;;;;;;;;;;;;;;;;10459725;28;20326;-62
2022/10/02 16:43:52;;;;;;;;;;;;;;;;;;10460477;28;20334;-62
2022/10/02 16:48:54;;;;;;;;;;;;;;;;;;10460382;28;19925;-62
2022/10/02 16:53:56;;;;;;;;;;;;;;;;;;10459513;28;19929;-62
2022/10/02 16:58:59;;;;;;;;;;;;;;;;;;10459380;28;19979;-62
2022/10/02 17:04:04;;;;;;;;;;;;;;;;;;10460341;28;19931;-62
2022/10/02 17:09:06;;;;;;;;;;;;;;;;;;10459092;28;19963;-62
2022/10/02 17:14:09;;;;;;;;;;;;;;;;;;10454132;28;20379;-62
2022/10/02 17:19:11;;;;;;;;;;;;;;;;;;10456137;28;19932;-62
2022/10/02 17:24:13;;;;;;;;;;;;;;;;;;10456738;28;19924;-62
2022/10/02 17:29:16;;;;;;;;;;;;;;;;;;10457104;28;20375;-62
2022/10/02 17:34:18;;;;;;;;;;;;;;;;;;10457296;28;19924;-62
2022/10/02 17:39:21;;;;;;;;;;;;;;;;;;10458223;28;20310;-62
2022/10/02 17:44:23;;;;;;;;;;;;;;;;;;10457764;28;19925;-62
2022/10/02 17:49:25;;;;;;;;;;;;;;;;;;10457842;28;19978;-62
2022/10/02 17:59:47;;;;;;;;;;;;;;;;;;10457752;28;19986;-62
2022/10/02 18:04:49;;;;;;;;;;;;;;;;;;10456858;28;19929;-62
2022/10/02 18:09:52;;;;;;;;;;;;;;;;;;10456729;28;19925;-62
2022/10/02 18:14:54;;;;;;;;;;;;;;;;;;10456756;28;19924;-62
2022/10/02 18:19:56;;;;;;;;;;;;;;;;;;10457499;28;19951;-62
2022/10/02 18:24:58;;;;;;;;;;;;;;;;;;10456010;28;19925;-62
2022/10/02 18:30:00;;;;;;;;;;;;;;;;;;10450861;28;20042;-62
2022/10/02 18:35:02;;;;;;;;;;;;;;;;;;10455752;28;19929;-62
2022/10/02 18:40:05;;;;;;;;;;;;;;;;;;10455025;28;19971;-62
2022/10/02 18:45:08;;;;;;;;;;;;;;;;;;10468424;22;19925;-60
2022/10/02 18:50:11;;;;;;;;;;;;;;;;;;10464630;28;19925;-60
2022/10/02 18:55:13;;;;;;;;;;;;;;;;;;10463599;28;19929;-60
2022/10/02 19:00:15;;;;;;;;;;;;;;;;;;10464072;28;19978;-59
2022/10/02 19:05:18;;;;;;;;;;;;;;;;;;10464855;28;19940;-59
2022/10/02 19:10:20;;;;;;;;;;;;;;;;;;10461602;28;19933;-59
2022/10/02 19:15:22;;;;;;;;;;;;;;;;;;10463970;28;19928;-59
2022/10/02 19:20:24;;;;;;;;;;;;;;;;;;10461373;28;20330;-59
2022/10/02 19:25:27;;;;;;;;;;;;;;;;;;10445766;28;19925;-59
2022/10/02 19:30:29;;;;;;;;;;;;;;;;;;10462146;28;19925;-59
2022/10/02 19:35:32;;;;;;;;;;;;;;;;;;10453430;28;19995;-59
2022/10/02 19:40:34;;;;;;;;;;;;;;;;;;10463356;28;19932;-59
2022/10/02 19:45:36;;;;;;;;;;;;;;;;;;10436376;28;20380;-59
2022/10/02 19:50:39;;;;;;;;;;;;;;;;;;10440743;28;20383;-59
2022/10/02 19:55:41;;;;;;;;;;;;;;;;;;10458276;28;19925;-60
2022/10/02 20:00:43;;;;;;;;;;;;;;;;;;10457521;28;20390;-59
2022/10/02 20:05:45;;;;;;;;;;;;;;;;;;10462014;28;20402;-59
2022/10/02 20:10:47;;;;;;;;;;;;;;;;;;10461858;28;19990;-59
2022/10/02 20:21:10;;;;;;;;;;;;;;;;;;10460518;28;20387;-59
2022/10/02 20:26:12;;;;;;;;;;;;;;;;;;10461896;28;19924;-59
2022/10/02 20:31:14;;;;;;;;;;;;;;;;;;10458788;28;19978;-59
2022/10/02 20:36:16;;;;;;;;;;;;;;;;;;10461565;28;19931;-59
2022/10/02 20:41:18;;;;;;;;;;;;;;;;;;10459415;28;20272;-59
2022/10/02 20:46:20;;;;;;;;;;;;;;;;;;10460405;28;19925;-59
2022/10/02 20:51:22;;;;;;;;;;;;;;;;;;10460284;28;19925;-59
2022/10/02 20:56:24;;;;;;;;;;;;;;;;;;10459490;28;19925;-59
2022/10/02 21:01:26;;;;;;;;;;;;;;;;;;10456510;28;19960;-59
2022/10/02 21:06:29;;;;;;;;;;;;;;;;;;10457846;28;20364;-59
2022/10/02 21:11:31;;;;;;;;;;;;;;;;;;10458091;28;19992;-59
2022/10/02 21:16:33;;;;;;;;;;;;;;;;;;10459894;28;19925;-60
2022/10/02 21:21:36;;;;;;;;;;;;;;;;;;10458989;28;20283;-59
2022/10/02 21:26:38;;;;;;;;;;;;;;;;;;10458855;28;19975;-59
2022/10/02 21:31:41;;;;;;;;;;;;;;;;;;10457680;28;19925;-59
2022/10/02 21:36:43;;;;;;;;;;;;;;;;;;10458128;28;19925;-59
2022/10/02 21:41:46;;;;;;;;;;;;;;;;;;10457827;28;19929;-59
2022/10/02 21:46:48;;;;;;;;;;;;;;;;;;10457389;28;19925;-59
2022/10/02 21:51:50;;;;;;;;;;;;;;;;;;10458686;28;19955;-59
2022/10/02 21:56:52;;;;;;;;;;;;;;;;;;10458379;28;19925;-59
2022/10/02 22:01:55;;;;;;;;;;;;;;;;;;10456329;28;19925;-59
2022/10/02 22:07:08;;;;;;;;;;;;;;;;;;10458065;28;19935;-59
2022/10/02 22:12:11;;;;;;;;;;;;;;;;;;10457301;28;19995;-59
2022/10/02 22:17:13;;;;;;;;;;;;;;;;;;10456178;28;19979;-59
2022/10/02 22:22:15;;;;;;;;;;;;;;;;;;10456614;28;19979;-59
2022/10/02 22:27:17;;;;;;;;;;;;;;;;;;10455917;28;19986;-59
2022/10/02 22:37:40;;;;;;;;;;;;;;;;;;10455642;28;19956;-59
2022/10/02 22:42:42;;;;;;;;;;;;;;;;;;10454649;28;19994;-59
2022/10/02 22:47:44;;;;;;;;;;;;;;;;;;10456618;28;19956;-59
2022/10/02 22:52:46;;;;;;;;;;;;;;;;;;10456381;28;19925;-58
2022/10/02 22:57:48;;;;;;;;;;;;;;;;;;10455965;28;20148;-59
2022/10/02 23:02:51;;;;;;;;;;;;;;;;;;10455831;28;19971;-59
2022/10/02 23:07:53;;;;;;;;;;;;;;;;;;10456080;28;19925;-59
2022/10/02 23:12:56;;;;;;;;;;;;;;;;;;10456589;28;19978;-59
2022/10/02 23:17:58;;;;;;;;;;;;;;;;;;10454786;28;19999;-59
2022/10/02 23:23:01;;;;;;;;;;;;;;;;;;10455012;28;20338;-59
2022/10/02 23:28:03;;;;;;;;;;;;;;;;;;10455685;28;19924;-59
2022/10/02 23:33:05;;;;;;;;;;;;;;;;;;10462775;28;20275;-59
2022/10/02 23:38:07;;;;;;;;;;;;;;;;;;10462681;28;19978;-59
2022/10/02 23:43:11;;;;;;;;;;;;;;;;;;10458287;28;20451;-59
2022/10/02 23:48:13;;;;;;;;;;;;;;;;;;10461879;28;19929;-59
2022/10/02 23:53:15;;;;;;;;;;;;;;;;;;10462396;28;19924;-59
2022/10/02 23:58:17;;;;;;;;;;;;;;;;;;10462936;28;19925;-59
